Amherst Junction, Wisconsin
Current Conditions -  °F | °C
As of 10:35 AM on Friday 31 Oct 2014 (Local Time) from KSTE Reporting Station
Overcast Overcast  
Wind Chill: 19°   Ceiling: 3300
Heat Index: 31°   Visibility: 10mi
Dew Point: 20°   Wind: 17mph
Humidity: 64%   Direction: 360°N
Pressure: 30.36"   Gusts: 25mph
Location:  44.47°N, 89.31°W
Report Text: KSTE 311535Z AUTO 36015G22KT 10SM OVC033 M01/M07 A3036 RMK AO2 T10061066
Loading
Personal Weather Stations






























Interactive Weather Map
Tropical Storm Tracking
New forecast layout! Learn more

10-Day Weather Forecast

Advertisements
Track Severe Weather on mobile